Bf Caroda — V2CV5 — position and weather

sailwx.info

Track history (hours):
 
Tides and Currents Weather Stations Pressure Air Temp Water Temp Dewpoint Dewpoint Depression Visibility Wind Speed Wind Dir Waves Ship Positions

Bf Caroda

Last reported at 2014-Dec-21 21:33 UTC. Time now 2014-Dec-22 14:53 UTC.
Position N 41°31' E 003°01'.

Length 134 m; draft 7.9 m.

Type: Ship (hazmat cat A). MMSI: 304678000.

Date/timePositionNaut miles runAvg speedWind from/ knotsBaromVisibWave heightAir tempDewpointWater temp
2014-Dec-21 21:33N 41°31' E 003°01'1413.6
2014-Dec-21 20:33N 41°19' E 002°52'1713.4
2014-Dec-21 19:17N 41°07' E 002°37'1114.2
2014-Dec-21 18:33N 40°58' E 002°29'1414.3
2014-Dec-21 17:34N 40°47' E 002°18'1413.7
2014-Dec-21 16:33N 40°35' E 002°08'1413.9
2014-Dec-21 15:33N 40°24' E 001°58'1413.9
2014-Dec-21 14:33N 40°12' E 001°48'1515.0
2014-Dec-21 13:33N 39°60' E 001°37'1515.0
2014-Dec-21 12:33N 39°47' E 001°26'16316.1
2014-Dec-21 02:29N 37°33' W 000°31'1515.5
2014-Dec-21 01:32N 37°23' W 000°45'23315.5
2014-Dec-20 10:34N 35°59' W 005°16'  
2014-Dec-14 19:25N 35°57' W 005°34'6 0.3
2014-Dec-14 00:33N 35°59' W 005°28'23214.5
2014-Dec-13 08:30N 37°19' W 000°56'2017.5
2014-Dec-13 07:23N 37°31' W 000°37'1517.4
2014-Dec-13 06:33N 37°43' W 000°25'1818.0
2014-Dec-13 05:32N 37°58' W 000°14'8316.5
2014-Dec-13 00:31N 39°06' E 000°47'1516.0
2014-Dec-12 23:34N 39°18' E 000°59'1615.9
2014-Dec-12 22:32N 39°31' E 001°12'1515.2
2014-Dec-12 21:33N 39°42' E 001°25'1615.8
2014-Dec-12 20:33N 39°55' E 001°37'1615.7
2014-Dec-12 19:33N 40°07' E 001°50'1615.7
2014-Dec-12 18:33N 40°19' E 002°03'1615.9
2014-Dec-12 17:33N 40°32' E 002°16'1616.0
2014-Dec-12 16:33N 40°44' E 002°29'1615.7
2014-Dec-12 15:33N 40°56' E 002°42'3516.6
2014-Dec-12 13:26N 41°23' E 003°12'2317.1
2014-Dec-12 12:05N 41°41' E 003°31'1314.2
2014-Dec-12 11:10N 41°52' E 003°42'2814.4
2014-Dec-12 09:13N 42°14' E 004°05'1314.3
2014-Dec-12 08:19N 42°24' E 004°16'2614.8
2014-Dec-12 06:33N 42°44' E 004°38'1515.2
2014-Dec-12 05:33N 42°56' E 004°51'1514.8
2014-Dec-12 04:33N 43°07' E 005°04'1414.1
2014-Dec-12 03:33N 43°19' E 005°15'4 4.3
2014-Dec-12 02:33N 43°21' E 005°20'0 0.0
2014-Dec-12 01:33N 43°21' E 005°20'0 0.0
2014-Dec-12 00:32N 43°21' E 005°20'0 0.0
2014-Dec-11 23:32N 43°21' E 005°20'0 0.0
2014-Dec-11 22:31N 43°21' E 005°20'  
Track history (hours):
 
Tides and Currents Weather Stations Pressure Air Temp Water Temp Dewpoint Dewpoint Depression Visibility Wind Speed Wind Dir Waves Ship Positions

Bf Caroda

Last reported at 2014-Dec-21 21:33 UTC. Time now 2014-Dec-22 14:53 UTC.
Position N 41°31' E 003°01'.

Length 134 m; draft 7.9 m.

Type: Ship (hazmat cat A). MMSI: 304678000.

Date/timePositionNaut miles runAvg speedWind from/ knotsBaromVisibWave heightAir tempDewpointWater temp
2014-Dec-21 21:33N 41°31' E 003°01'1413.6
2014-Dec-21 20:33N 41°19' E 002°52'1713.4
2014-Dec-21 19:17N 41°07' E 002°37'1114.2
2014-Dec-21 18:33N 40°58' E 002°29'1414.3
2014-Dec-21 17:34N 40°47' E 002°18'1413.7
2014-Dec-21 16:33N 40°35' E 002°08'1413.9
2014-Dec-21 15:33N 40°24' E 001°58'1413.9
2014-Dec-21 14:33N 40°12' E 001°48'1515.0
2014-Dec-21 13:33N 39°60' E 001°37'1515.0
2014-Dec-21 12:33N 39°47' E 001°26'16316.1
2014-Dec-21 02:29N 37°33' W 000°31'1515.5
2014-Dec-21 01:32N 37°23' W 000°45'23315.5
2014-Dec-20 10:34N 35°59' W 005°16'  
2014-Dec-14 19:25N 35°57' W 005°34'6 0.3
2014-Dec-14 00:33N 35°59' W 005°28'23214.5
2014-Dec-13 08:30N 37°19' W 000°56'2017.5
2014-Dec-13 07:23N 37°31' W 000°37'1517.4
2014-Dec-13 06:33N 37°43' W 000°25'1818.0
2014-Dec-13 05:32N 37°58' W 000°14'8316.5
2014-Dec-13 00:31N 39°06' E 000°47'1516.0
2014-Dec-12 23:34N 39°18' E 000°59'1615.9
2014-Dec-12 22:32N 39°31' E 001°12'1515.2
2014-Dec-12 21:33N 39°42' E 001°25'1615.8
2014-Dec-12 20:33N 39°55' E 001°37'1615.7
2014-Dec-12 19:33N 40°07' E 001°50'1615.7
2014-Dec-12 18:33N 40°19' E 002°03'1615.9
2014-Dec-12 17:33N 40°32' E 002°16'1616.0
2014-Dec-12 16:33N 40°44' E 002°29'1615.7
2014-Dec-12 15:33N 40°56' E 002°42'3516.6
2014-Dec-12 13:26N 41°23' E 003°12'2317.1
2014-Dec-12 12:05N 41°41' E 003°31'1314.2
2014-Dec-12 11:10N 41°52' E 003°42'2814.4
2014-Dec-12 09:13N 42°14' E 004°05'1314.3
2014-Dec-12 08:19N 42°24' E 004°16'2614.8
2014-Dec-12 06:33N 42°44' E 004°38'1515.2
2014-Dec-12 05:33N 42°56' E 004°51'1514.8
2014-Dec-12 04:33N 43°07' E 005°04'1414.1
2014-Dec-12 03:33N 43°19' E 005°15'4 4.3
2014-Dec-12 02:33N 43°21' E 005°20'0 0.0
2014-Dec-12 01:33N 43°21' E 005°20'0 0.0
2014-Dec-12 00:32N 43°21' E 005°20'0 0.0
2014-Dec-11 23:32N 43°21' E 005°20'0 0.0
2014-Dec-11 22:31N 43°21' E 005°20'  

Dump ship's entire track history